Time;durP1;ratioP1;P1;durP2;ratioP2;P2;SDS_P1;SDS_P2;PMS_P1;PMS_P2;Temp;Humidity;BMP_temperature;BMP_pressure;BME280_temperature;BME280_humidity;BME280_pressure;Samples;Min_cycle;Max_cycle;Signal;HPM_P1;HPM_P2
2022/12/30 00:00:54;;;;;;;;;6.60;4.80;;;;;9.12;70.04;100708.09;5072852;28;45489;-58
2022/12/30 00:03:19;;;;;;;;;6.75;4.00;;;;;9.06;70.45;100700.69;5072632;28;45538;-60
2022/12/30 00:05:45;;;;;;;;;5.75;3.00;;;;;9.05;71.19;100701.75;5072665;28;45439;-58
2022/12/30 00:08:55;;;;;;;;;7.25;4.00;;;;;9.05;70.43;100708.06;5071473;28;45427;-57
2022/12/30 00:10:56;;;;;;;;;7.20;6.40;;;;;9.04;70.37;100700.91;5050207;28;45856;-54
2022/12/30 00:35:17;;;;;;;;;2.60;2.60;;;;;8.91;70.70;100668.81;5056836;28;45467;-56
2022/12/30 00:37:43;;;;;;;;;2.50;2.50;;;;;8.90;70.86;100675.34;5070422;28;45589;-55
2022/12/30 00:40:09;;;;;;;;;4.75;2.00;;;;;8.90;71.75;100675.34;5071939;28;45854;-57
2022/12/30 00:45:19;;;;;;;;;4.40;3.00;;;;;8.84;71.31;100678.03;5070403;28;45543;-59
2022/12/30 00:47:44;;;;;;;;;2.00;2.00;;;;;8.86;70.88;100681.44;5053274;28;45488;-59
2022/12/30 00:58:22;;;;;;;;;4.80;4.20;;;;;8.74;70.91;100676.53;5069485;28;45534;-60
2022/12/30 01:00:47;;;;;;;;;6.75;3.00;;;;;8.72;71.49;100669.56;5071245;28;45456;-60
2022/12/30 01:03:13;;;;;;;;;4.00;2.50;;;;;8.73;71.26;100668.50;5071671;28;45491;-59
2022/12/30 01:05:38;;;;;;;;;6.50;6.00;;;;;8.62;70.97;100659.81;5071132;28;45434;-59
2022/12/30 01:08:04;;;;;;;;;10.50;6.00;;;;;8.64;71.73;100665.94;5051718;28;45479;-60
2022/12/30 01:10:30;;;;;;;;;4.50;2.00;;;;;8.45;71.31;100623.72;5071360;28;45427;-60
2022/12/30 01:12:55;;;;;;;;;4.50;4.50;;;;;8.73;71.58;100646.59;5036201;28;45397;-56
2022/12/30 01:15:21;;;;;;;;;4.25;4.25;;;;;8.66;70.27;100652.88;5071058;28;46440;-61
2022/12/30 01:17:46;;;;;;;;;3.75;2.75;;;;;8.66;71.49;100657.53;5060403;27;45524;-59
2022/12/30 01:20:12;;;;;;;;;5.75;3.00;;;;;8.42;71.30;100626.84;5070001;28;46537;-59
2022/12/30 01:22:37;;;;;;;;;3.00;3.00;;;;;8.40;71.06;100620.72;5071252;28;45456;-59
2022/12/30 01:25:03;;;;;;;;;5.75;2.00;;;;;8.62;71.27;100642.56;5070747;28;46479;-61
2022/12/30 01:27:30;;;;;;;;;4.25;4.25;;;;;8.62;71.29;100640.69;5071233;28;45374;-62
2022/12/30 01:29:56;;;;;;;;;6.40;3.00;;;;;8.63;70.66;100633.28;5070642;28;45565;-60
2022/12/30 01:32:21;;;;;;;;;6.75;4.25;;;;;8.58;71.71;100624.88;5051676;28;45377;-54
2022/12/30 01:34:47;;;;;;;;;9.25;4.25;;;;;8.64;71.43;100637.75;5071031;28;45471;-56
2022/12/30 01:37:13;;;;;;;;;6.75;2.50;;;;;8.63;71.44;100638.75;5070741;28;45546;-54
2022/12/30 01:39:38;;;;;;;;;8.40;4.40;;;;;8.61;71.22;100643.59;5070765;28;45365;-59
2022/12/30 01:42:24;;;;;;;;;4.75;3.75;;;;;8.57;71.19;100629.47;5070918;28;45578;-59
2022/12/30 01:44:57;;;;;;;;;3.60;3.60;;;;;8.47;71.57;100624.34;5054137;28;46817;-60
2022/12/30 01:47:56;;;;;;;;;4.80;4.40;;;;;8.60;70.83;100644.66;5070804;28;45558;-57
2022/12/30 01:50:26;;;;;;;;;8.00;4.40;;;;;8.39;71.23;100611.66;5069244;28;45921;-60
2022/12/30 01:53:04;;;;;;;;;7.20;4.40;;;;;8.57;71.55;100634.97;5036802;28;45548;-60
2022/12/30 01:55:32;;;;;;;;;6.40;3.20;;;;;8.58;71.74;100631.16;5070900;28;46260;-60
2022/12/30 01:57:58;;;;;;;;;3.40;3.40;;;;;8.57;70.97;100629.47;5069679;28;45888;-59
2022/12/30 02:00:24;;;;;;;;;5.00;5.00;;;;;8.42;71.31;100599.47;5069370;28;45455;-60
2022/12/30 02:02:50;;;;;;;;;4.40;3.40;;;;;8.52;71.11;100627.34;5070693;28;45748;-60
2022/12/30 02:05:15;;;;;;;;;6.50;4.50;;;;;8.54;71.83;100625.25;5052449;28;45479;-56
2022/12/30 02:08:15;;;;;;;;;5.00;5.00;;;;;8.46;71.78;100625.41;5068903;28;45400;-55
2022/12/30 02:10:45;;;;;;;;;3.60;3.60;;;;;8.52;71.76;100627.34;5069275;28;45923;-54
2022/12/30 02:13:12;;;;;;;;;6.00;4.20;;;;;8.53;71.65;100630.94;5056730;28;45580;-57
2022/12/30 02:16:22;;;;;;;;;4.60;4.60;;;;;8.51;71.78;100636.63;5073214;28;45807;-57
2022/12/30 02:19:10;;;;;;;;;6.00;6.00;;;;;8.44;71.57;100634.84;5048193;28;45587;-59
2022/12/30 02:21:54;;;;;;;;;6.20;3.20;;;;;8.27;71.73;100608.66;5074393;28;45346;-59
2022/12/30 02:24:50;;;;;;;;;4.00;4.00;;;;;8.39;72.11;100624.50;5074713;28;45255;-59
2022/12/30 02:27:33;;;;;;;;;9.20;9.20;;;;;8.37;72.51;100621.97;5074548;28;45384;-57
2022/12/30 02:30:34;;;;;;;;;9.20;6.20;;;;;8.41;72.88;100619.69;5074430;28;45329;-57
2022/12/30 02:33:02;;;;;;;;;9.60;7.00;;;;;8.05;72.52;100558.66;5005486;28;45896;-55
2022/12/30 02:35:52;;;;;;;;;5.00;4.20;;;;;8.21;72.37;100586.75;5074809;28;45275;-56
2022/12/30 02:38:39;;;;;;;;;7.00;7.00;;;;;8.36;72.92;100613.97;5074677;28;46795;-58
2022/12/30 02:46:49;;;;;;;;;6.60;6.60;;;;;8.27;72.91;100597.72;5087966;27;45242;-53
2022/12/30 02:49:14;;;;;;;;;10.80;8.00;;;;;8.35;73.69;100596.72;5057146;28;45414;-60
2022/12/30 02:54:24;;;;;;;;;9.40;7.00;;;;;8.39;73.06;100583.50;5091469;27;45294;-59
2022/12/30 02:56:50;;;;;;;;;10.00;8.00;;;;;8.32;73.59;100594.38;5059756;28;45283;-59
2022/12/30 03:05:15;;;;;;;;;11.80;7.60;;;;;8.38;74.14;100581.81;5062216;28;45902;-59
2022/12/30 03:07:45;;;;;;;;;10.60;8.40;;;;;8.37;74.42;100580.09;5078063;28;45520;-58
2022/12/30 03:13:23;;;;;;;;;11.20;9.80;;;;;8.33;74.65;100574.19;5062477;28;45446;-53
2022/12/30 03:15:57;;;;;;;;;7.40;6.40;;;;;8.36;73.71;100568.31;5059550;28;45483;-54
2022/12/30 03:18:22;;;;;;;;;7.60;7.60;;;;;8.38;74.54;100570.88;5093761;27;45328;-59
2022/12/30 03:20:48;;;;;;;;;10.00;9.50;;;;;8.12;74.90;100524.00;5059153;28;46879;-59
2022/12/30 03:28:43;;;;;;;;;12.60;9.20;;;;;8.43;74.77;100549.19;5055926;28;45468;-59
2022/12/30 03:31:11;;;;;;;;;9.00;7.25;;;;;8.41;74.45;100551.31;5058863;28;45922;-59
2022/12/30 03:33:36;;;;;;;;;8.40;6.40;;;;;8.27;74.93;100512.94;5076265;28;45458;-54
2022/12/30 03:36:21;;;;;;;;;13.00;13.00;;;;;8.49;75.62;100559.31;5077124;28;45348;-53
2022/12/30 03:38:58;;;;;;;;;9.60;9.60;;;;;8.52;74.92;100569.06;5077494;28;45323;-52
2022/12/30 03:41:23;;;;;;;;;13.40;7.60;;;;;8.48;74.53;100559.56;5058792;28;45661;-59
2022/12/30 03:43:49;;;;;;;;;8.75;8.75;;;;;8.19;75.34;100524.06;5058650;28;45259;-58
2022/12/30 03:46:14;;;;;;;;;13.50;8.75;;;;;8.16;75.48;100509.94;5058610;28;45425;-57
2022/12/30 03:48:40;;;;;;;;;9.75;6.00;;;;;8.14;75.74;100512.88;5059492;28;45346;-55
2022/12/30 03:51:05;;;;;;;;;11.50;10.00;;;;;7.94;75.98;100477.22;5076601;28;46547;-54
2022/12/30 03:53:31;;;;;;;;;8.00;6.00;;;;;8.35;75.99;100536.56;5076932;28;45168;-55
2022/12/30 03:55:56;;;;;;;;;11.00;7.25;;;;;8.12;75.11;100484.91;5077220;28;45266;-52
2022/12/30 03:58:22;;;;;;;;;7.50;6.75;;;;;8.35;76.00;100531.09;5077009;28;45226;-54
2022/12/30 04:00:49;;;;;;;;;6.00;6.00;;;;;8.36;76.06;100530.03;5075438;28;48249;-55
2022/12/30 04:03:15;;;;;;;;;10.00;8.00;;;;;8.36;75.89;100524.56;5058354;28;45438;-59
2022/12/30 04:05:40;;;;;;;;;7.75;7.00;;;;;8.39;75.38;100515.13;5076851;28;45449;-57
2022/12/30 04:08:06;;;;;;;;;11.00;8.25;;;;;8.36;75.89;100513.63;5077164;28;45426;-58
2022/12/30 04:10:31;;;;;;;;;9.00;6.25;;;;;8.30;76.03;100505.38;5076155;28;45909;-58
2022/12/30 04:12:57;;;;;;;;;8.25;6.75;;;;;8.05;75.97;100468.44;5076490;28;45397;-58
2022/12/30 04:15:22;;;;;;;;;7.00;5.50;;;;;8.31;76.08;100504.34;5076602;28;45425;-56
2022/12/30 04:17:48;;;;;;;;;7.25;5.50;;;;;8.20;76.09;100497.53;5041657;28;45404;-53
2022/12/30 04:20:13;;;;;;;;;6.00;6.00;;;;;8.21;76.48;100496.53;5076602;28;46173;-52
2022/12/30 04:22:39;;;;;;;;;6.25;5.00;;;;;8.19;76.70;100491.25;5058185;28;45372;-54
2022/12/30 04:25:05;;;;;;;;;7.75;6.25;;;;;8.20;76.97;100495.66;5076528;28;45410;-55
2022/12/30 04:27:30;;;;;;;;;9.00;6.00;;;;;8.19;76.57;100498.59;5076338;28;45235;-57
2022/12/30 04:29:56;;;;;;;;;7.00;7.00;;;;;8.18;77.38;100496.91;5076285;28;45395;-57
2022/12/30 04:32:21;;;;;;;;;6.75;6.75;;;;;8.15;76.90;100498.16;5075962;28;45419;-58
2022/12/30 04:34:47;;;;;;;;;5.75;5.75;;;;;7.90;77.67;100460.38;5076309;28;45436;-58
2022/12/30 04:37:12;;;;;;;;;7.75;6.00;;;;;8.05;77.80;100490.31;5058278;28;45591;-58
2022/12/30 04:39:38;;;;;;;;;7.75;7.00;;;;;8.05;77.83;100490.31;5075838;28;45675;-57
2022/12/30 04:42:04;;;;;;;;;10.25;7.50;;;;;8.06;77.78;100477.50;5076154;28;45533;-55
2022/12/30 04:44:29;;;;;;;;;7.00;6.25;;;;;8.06;77.99;100483.81;5075494;28;45418;-54
2022/12/30 04:46:55;;;;;;;;;7.00;7.00;;;;;7.94;77.54;100445.28;5076090;28;45511;-50
2022/12/30 04:49:20;;;;;;;;;11.25;10.00;;;;;8.12;77.78;100465.78;5076122;28;46075;-52
2022/12/30 04:51:45;;;;;;;;;8.25;7.00;;;;;8.13;77.62;100472.91;5075202;28;45405;-54
2022/12/30 04:54:11;;;;;;;;;8.25;6.75;;;;;8.11;77.90;100464.09;5075740;28;45272;-56
2022/12/30 04:56:36;;;;;;;;;7.25;7.25;;;;;8.06;77.85;100452.91;5075920;28;45368;-57
2022/12/30 04:59:02;;;;;;;;;8.00;7.00;;;;;8.11;77.94;100455.88;5075787;28;45729;-57
2022/12/30 05:01:28;;;;;;;;;8.75;4.75;;;;;7.97;78.56;100411.22;5075665;28;45439;-58
2022/12/30 05:03:53;;;;;;;;;10.75;5.25;;;;;7.93;77.96;100405.31;5075653;28;45219;-58
2022/12/30 05:06:19;;;;;;;;;7.00;5.00;;;;;8.12;78.83;100443.91;5075973;28;45510;-58
2022/12/30 05:08:44;;;;;;;;;7.50;6.00;;;;;8.12;79.21;100436.53;5075332;28;46116;-59
2022/12/30 05:11:10;;;;;;;;;9.00;7.25;;;;;8.17;78.87;100435.91;5056972;28;45395;-58
2022/12/30 05:13:35;;;;;;;;;8.50;8.50;;;;;8.02;78.19;100392.34;5075295;28;45249;-56
2022/12/30 05:16:01;;;;;;;;;5.50;5.00;;;;;8.04;78.52;100379.31;5057521;28;45275;-56
2022/12/30 05:18:26;;;;;;;;;7.00;5.50;;;;;8.03;78.74;100371.28;5075381;28;46306;-53
2022/12/30 05:20:52;;;;;;;;;6.00;6.00;;;;;8.20;78.82;100383.56;5075220;28;45386;-53
2022/12/30 05:26:13;;;;;;;;;5.60;5.00;;;;;8.22;79.24;100380.63;5075623;28;45275;-54
2022/12/30 05:28:39;;;;;;;;;9.00;6.00;;;;;8.24;78.83;100375.78;5075580;28;46183;-54
2022/12/30 05:31:04;;;;;;;;;5.00;3.00;;;;;8.02;79.21;100353.22;5056778;28;45480;-51
2022/12/30 05:33:30;;;;;;;;;6.25;3.75;;;;;8.19;80.03;100384.63;5074031;28;45432;-54
2022/12/30 05:35:55;;;;;;;;;2.00;2.00;;;;;8.23;78.81;100380.41;5075227;28;45565;-56
2022/12/30 05:38:21;;;;;;;;;1.50;1.50;;;;;8.27;79.32;100378.09;5075280;28;46456;-57
2022/12/30 05:40:46;;;;;;;;;5.50;3.75;;;;;8.28;79.35;100366.97;5075060;28;45375;-58
2022/12/30 05:43:12;;;;;;;;;6.25;2.25;;;;;8.33;78.97;100368.25;5074787;28;45479;-58
2022/12/30 05:45:37;;;;;;;;;2.00;2.00;;;;;8.33;78.94;100354.59;5075581;28;45388;-59
2022/12/30 05:48:03;;;;;;;;;2.00;1.75;;;;;8.16;78.66;100313.94;5074882;28;45941;-58
2022/12/30 05:50:28;;;;;;;;;3.00;1.00;;;;;8.34;78.80;100342.59;5075120;28;45316;-58
2022/12/30 05:52:54;;;;;;;;;5.75;2.25;;;;;8.16;79.16;100307.66;5056574;28;45521;-56
2022/12/30 05:55:19;;;;;;;;;1.50;1.00;;;;;8.43;79.34;100335.03;5057333;28;45399;-52
2022/12/30 05:57:44;;;;;;;;;5.25;3.00;;;;;8.40;78.67;100308.94;5074671;28;45671;-51
2022/12/30 06:00:10;;;;;;;;;4.25;2.00;;;;;8.45;79.12;100325.56;5074709;28;45227;-51
2022/12/30 06:02:36;;;;;;;;;2.80;2.40;;;;;8.45;79.15;100309.16;5056975;28;45286;-55
2022/12/30 06:05:01;;;;;;;;;3.25;3.25;;;;;8.44;79.31;100299.28;5074992;28;45250;-55
2022/12/30 06:07:27;;;;;;;;;9.75;2.50;;;;;8.47;79.72;100298.84;5074586;28;45350;-57
2022/12/30 06:09:52;;;;;;;;;2.25;2.25;;;;;8.47;78.99;100293.38;5074758;28;45283;-59
2022/12/30 06:12:18;;;;;;;;;2.00;2.00;;;;;8.49;79.61;100288.53;5074733;28;45598;-58
2022/12/30 06:14:43;;;;;;;;;3.25;2.50;;;;;8.53;79.35;100292.59;5074961;28;45448;-58
2022/12/30 06:17:09;;;;;;;;;2.25;1.25;;;;;8.55;79.65;100286.91;5074259;28;46688;-59
2022/12/30 06:19:34;;;;;;;;;5.25;3.00;;;;;8.56;79.45;100277.66;5074620;28;45401;-58
2022/12/30 06:22:00;;;;;;;;;5.00;2.50;;;;;8.60;79.22;100278.06;5055933;28;45367;-58
2022/12/30 06:24:25;;;;;;;;;1.75;1.75;;;;;8.58;79.61;100263.75;5074269;28;45520;-55
2022/12/30 06:26:51;;;;;;;;;2.25;2.00;;;;;8.37;79.24;100230.03;5076238;28;45557;-52
2022/12/30 06:29:16;;;;;;;;;3.75;3.75;;;;;8.60;78.74;100248.78;5077789;28;45398;-50
2022/12/30 06:31:42;;;;;;;;;2.25;2.25;;;;;8.58;79.42;100252.81;5078233;28;45718;-53
2022/12/30 06:34:07;;;;;;;;;4.25;3.50;;;;;8.64;79.57;100243.78;5078140;28;45413;-55
2022/12/30 06:36:33;;;;;;;;;5.50;2.00;;;;;8.63;79.35;100234.72;5077872;28;46479;-56
2022/12/30 06:38:58;;;;;;;;;3.50;3.00;;;;;8.66;79.53;100219.78;5078153;28;45364;-58
2022/12/30 06:41:24;;;;;;;;;3.50;3.50;;;;;8.63;79.86;100218.28;5077613;28;45641;-58
2022/12/30 06:43:49;;;;;;;;;3.00;1.75;;;;;8.66;79.86;100217.84;5059659;28;45597;-59
2022/12/30 06:46:15;;;;;;;;;3.00;3.00;;;;;8.63;79.72;100204.63;5077676;28;45431;-59
2022/12/30 06:48:40;;;;;;;;;1.00;1.00;;;;;8.47;79.83;100164.84;5060133;28;45368;-58
2022/12/30 06:51:06;;;;;;;;;2.75;2.75;;;;;8.67;80.18;100196.81;5078026;28;45281;-56
2022/12/30 06:53:31;;;;;;;;;1.75;1.75;;;;;8.69;80.32;100205.66;5077814;28;45425;-54
2022/12/30 06:55:57;;;;;;;;;3.75;2.00;;;;;8.55;79.08;100174.75;5077995;28;46362;-55
2022/12/30 06:58:22;;;;;;;;;1.50;1.50;;;;;8.56;79.82;100156.44;5077495;28;45385;-55
2022/12/30 07:00:48;;;;;;;;;4.00;2.75;;;;;8.47;79.87;100139.38;5060051;28;45293;-55
2022/12/30 07:03:13;;;;;;;;;6.75;3.50;;;;;8.75;79.38;100171.16;5059914;28;45324;-57
2022/12/30 07:05:39;;;;;;;;;2.25;1.25;;;;;8.75;79.22;100149.25;5077560;28;46349;-57
2022/12/30 07:08:04;;;;;;;;;3.50;2.75;;;;;8.86;79.38;100170.47;5059447;28;45461;-57
2022/12/30 07:10:30;;;;;;;;;2.00;2.00;;;;;8.88;78.51;100176.59;5076250;28;45479;-58
2022/12/30 07:12:55;;;;;;;;;5.00;3.25;;;;;8.87;78.79;100160.38;5077516;28;45492;-57
2022/12/30 07:15:21;;;;;;;;;1.75;1.75;;;;;8.91;78.95;100151.50;5077642;28;46110;-57
2022/12/30 07:17:46;;;;;;;;;3.00;1.25;;;;;8.92;78.72;100139.50;5076943;28;45400;-59
2022/12/30 07:20:12;;;;;;;;;2.25;1.75;;;;;8.73;79.41;100107.56;5077585;28;45406;-59
2022/12/30 07:22:38;;;;;;;;;1.00;1.00;;;;;8.75;79.04;100103.56;5077249;28;45340;-54
2022/12/30 07:25:04;;;;;;;;;2.00;1.75;;;;;8.95;78.63;100133.59;5077125;28;46152;-56
2022/12/30 07:27:30;;;;;;;;;3.60;1.80;;;;;8.95;78.47;100124.53;5058501;28;45755;-55
2022/12/30 07:29:55;;;;;;;;;2.75;2.75;;;;;8.93;77.88;100115.72;5077659;28;45274;-58
2022/12/30 07:32:20;;;;;;;;;6.75;2.00;;;;;8.93;78.67;100122.00;5077545;28;45479;-58
2022/12/30 07:34:46;;;;;;;;;2.50;2.50;;;;;8.92;77.98;100105.84;5076544;28;45327;-59
2022/12/30 07:37:11;;;;;;;;;1.75;1.75;;;;;8.85;78.28;100094.06;5076739;28;45234;-59
2022/12/30 07:39:38;;;;;;;;;2.50;1.50;;;;;8.73;78.92;100064.63;5077282;28;45930;-60
2022/12/30 07:42:03;;;;;;;;;1.00;1.00;;;;;8.79;78.21;100066.50;5076996;28;45503;-59
2022/12/30 07:44:29;;;;;;;;;1.50;1.00;;;;;9.01;78.45;100088.09;5076566;28;45674;-56
2022/12/30 07:46:55;;;;;;;;;2.75;1.75;;;;;9.04;77.58;100086.81;5076329;28;45531;-54
2022/12/30 07:49:21;;;;;;;;;2.20;2.20;;;;;8.99;78.15;100086.63;5059170;28;45432;-54
2022/12/30 07:51:46;;;;;;;;;2.50;2.00;;;;;9.07;78.42;100100.91;5058601;28;45714;-51
2022/12/30 07:54:12;;;;;;;;;2.75;2.75;;;;;8.89;77.92;100070.66;5076894;28;45557;-56
2022/12/30 07:56:37;;;;;;;;;3.00;3.00;;;;;9.03;77.30;100088.72;5076900;28;45376;-56
2022/12/30 07:59:03;;;;;;;;;3.00;1.00;;;;;9.06;77.22;100103.84;5076487;28;45408;-57
2022/12/30 08:01:29;;;;;;;;;3.00;1.00;;;;;9.09;76.44;100101.53;5042015;28;45520;-58
2022/12/30 08:03:55;;;;;;;;;0.00;0.00;;;;;9.08;76.62;100094.38;5076511;28;46629;-59
2022/12/30 08:06:20;;;;;;;;;1.00;1.00;;;;;9.11;76.03;100095.03;5076538;28;45303;-58
2022/12/30 08:08:46;;;;;;;;;1.75;0.00;;;;;9.17;76.75;100099.59;5076628;28;45353;-58
2022/12/30 08:11:12;;;;;;;;;1.75;1.00;;;;;9.17;76.27;100081.28;5076659;28;45471;-57
2022/12/30 08:13:39;;;;;;;;;2.00;1.00;;;;;9.01;76.13;100059.91;5075154;28;45596;-56
2022/12/30 08:16:08;;;;;;;;;2.00;1.00;;;;;9.21;76.47;100065.25;5058173;28;45524;-55
2022/12/30 08:18:34;;;;;;;;;1.80;1.80;;;;;9.06;75.54;100028.06;5058321;28;45322;-58
2022/12/30 08:21:07;;;;;;;;;1.00;1.00;;;;;8.99;76.40;100030.00;5058458;28;45334;-58
2022/12/30 08:23:33;;;;;;;;;1.60;1.60;;;;;9.21;76.82;100055.16;5076137;28;46522;-58
2022/12/30 08:26:11;;;;;;;;;0.50;0.50;;;;;9.24;76.43;100053.03;5076038;28;45636;-58
2022/12/30 08:28:37;;;;;;;;;3.00;2.00;;;;;9.25;77.01;100051.97;5075215;28;45815;-60
2022/12/30 08:31:10;;;;;;;;;2.75;1.75;;;;;9.28;77.17;100059.75;5058085;28;45399;-60
2022/12/30 08:33:36;;;;;;;;;3.60;1.00;;;;;9.16;76.65;100021.25;5076096;28;46051;-57
2022/12/30 08:36:06;;;;;;;;;2.40;1.00;;;;;9.29;77.03;100045.00;5075801;28;45403;-59
2022/12/30 08:38:36;;;;;;;;;2.00;1.00;;;;;9.27;77.84;100030.66;5057928;28;45296;-58
2022/12/30 08:41:06;;;;;;;;;1.60;1.00;;;;;9.27;77.41;100030.66;5058005;28;45889;-53
2022/12/30 08:43:31;;;;;;;;;1.00;1.00;;;;;9.14;77.74;100012.44;5075747;28;46709;-53
2022/12/30 08:45:58;;;;;;;;;1.00;1.00;;;;;9.16;77.65;100008.41;5076188;28;45481;-57
2022/12/30 08:48:23;;;;;;;;;2.20;1.00;;;;;8.64;77.55;99929.16;5057116;28;45335;-58
2022/12/30 08:50:48;;;;;;;;;1.50;1.50;;;;;9.13;78.90;100003.38;5076566;28;45586;-59
2022/12/30 08:53:14;;;;;;;;;1.75;1.75;;;;;9.15;79.42;100000.41;5075842;28;45682;-58
2022/12/30 08:55:39;;;;;;;;;1.50;1.50;;;;;8.90;79.11;99965.63;5058008;28;45464;-60
2022/12/30 08:58:05;;;;;;;;;2.25;2.00;;;;;9.08;79.59;99990.34;5057327;28;45473;-61
2022/12/30 09:00:30;;;;;;;;;2.50;2.50;;;;;9.06;79.36;99988.88;5075230;28;45385;-59
2022/12/30 09:02:56;;;;;;;;;4.25;1.75;;;;;9.06;79.21;99981.53;5075956;28;46019;-54
2022/12/30 09:05:21;;;;;;;;;5.50;1.50;;;;;8.80;79.97;99933.25;5075751;28;45368;-56
2022/12/30 09:07:47;;;;;;;;;2.00;2.00;;;;;9.01;79.71;99969.56;5074599;28;45424;-54
2022/12/30 09:10:13;;;;;;;;;1.75;1.75;;;;;9.00;80.62;99959.66;5075875;28;45283;-52
2022/12/30 09:12:39;;;;;;;;;1.00;1.00;;;;;8.58;80.85;99876.16;5075810;28;45740;-53
2022/12/30 09:15:06;;;;;;;;;2.00;2.00;;;;;9.00;81.31;99937.75;5091422;27;45373;-55
2022/12/30 09:17:31;;;;;;;;;1.20;1.20;;;;;8.97;80.71;99933.59;5075639;28;45532;-57
2022/12/30 09:19:57;;;;;;;;;1.50;1.50;;;;;8.99;81.19;99928.72;5076359;28;45286;-58
2022/12/30 09:22:22;;;;;;;;;1.00;1.00;;;;;8.98;81.44;99918.00;5075137;28;45573;-58
2022/12/30 09:24:48;;;;;;;;;3.75;2.00;;;;;8.93;81.45;99924.13;5075141;28;45325;-58
2022/12/30 09:27:13;;;;;;;;;3.50;2.50;;;;;8.96;81.30;99918.22;5075822;28;45305;-56
2022/12/30 09:29:39;;;;;;;;;4.50;1.25;;;;;8.94;81.43;99926.66;5075880;28;45372;-53
2022/12/30 09:32:04;;;;;;;;;2.00;1.00;;;;;8.87;82.22;99909.44;5075434;28;46301;-51
2022/12/30 09:34:30;;;;;;;;;3.00;3.00;;;;;8.93;81.91;99926.88;5075179;28;45316;-50
2022/12/30 09:36:55;;;;;;;;;1.75;1.75;;;;;8.92;81.92;99914.25;5075693;28;45231;-53
2022/12/30 09:39:30;;;;;;;;;1.25;1.25;;;;;8.94;82.39;99915.72;5076071;28;45346;-52
2022/12/30 09:44:52;;;;;;;;;0.60;0.00;;;;;8.98;81.96;99901.56;5056208;28;45531;-53
2022/12/30 09:47:26;;;;;;;;;2.00;2.00;;;;;8.87;82.76;99878.50;5074099;28;45351;-55
2022/12/30 09:49:56;;;;;;;;;2.80;2.00;;;;;8.95;83.31;99891.91;5073743;27;45566;-59
2022/12/30 09:52:35;;;;;;;;;1.60;1.60;;;;;8.44;82.48;99804.28;5056122;28;46527;-52
2022/12/30 09:55:17;;;;;;;;;2.00;2.00;;;;;9.01;83.72;99876.50;5024246;27;45520;-58
2022/12/30 09:57:43;;;;;;;;;1.80;1.80;;;;;9.02;83.55;99891.88;5051250;28;45554;-59
2022/12/30 10:00:14;;;;;;;;;1.25;1.25;;;;;9.00;83.69;99864.72;5055782;28;45364;-57
2022/12/30 10:03:07;;;;;;;;;3.80;2.00;;;;;9.04;83.35;99856.88;5073409;28;46406;-55
2022/12/30 10:05:47;;;;;;;;;1.80;1.80;;;;;9.03;83.74;99856.03;5060575;28;45371;-58
2022/12/30 10:08:22;;;;;;;;;2.40;2.00;;;;;9.02;84.45;99859.84;5073646;28;45460;-57
2022/12/30 10:11:00;;;;;;;;;1.80;0.80;;;;;9.05;85.07;99842.97;5057973;28;45502;-57
2022/12/30 10:13:29;;;;;;;;;0.60;0.40;;;;;8.88;85.33;99804.41;5058952;28;46343;-60
2022/12/30 10:16:17;;;;;;;;;1.80;1.80;;;;;9.01;85.15;99824.50;5074661;28;45399;-54
2022/12/30 10:19:01;;;;;;;;;3.00;1.20;;;;;9.05;86.09;99807.41;5058469;28;45536;-52
2022/12/30 10:21:32;;;;;;;;;1.00;1.00;;;;;9.06;86.20;99800.84;5077546;28;45568;-57
2022/12/30 10:24:16;;;;;;;;;1.20;1.20;;;;;8.88;86.31;99763.34;5057769;28;46534;-58
2022/12/30 10:26:49;;;;;;;;;1.00;0.40;;;;;9.06;86.00;99765.28;5070187;28;45437;-58
2022/12/30 10:29:17;;;;;;;;;1.20;1.20;;;;;9.12;86.17;99771.72;5074427;28;45428;-60
2022/12/30 10:31:44;;;;;;;;;0.80;0.80;;;;;9.13;86.67;99767.94;5056726;28;45423;-55
2022/12/30 10:34:15;;;;;;;;;3.40;1.40;;;;;9.15;86.69;99770.44;5056257;28;45714;-51
2022/12/30 10:37:00;;;;;;;;;1.00;1.00;;;;;9.22;86.54;99754.78;5072054;28;45440;-61
2022/12/30 10:39:29;;;;;;;;;1.40;0.80;;;;;9.09;86.83;99742.09;5058348;28;45444;-58
2022/12/30 10:42:17;;;;;;;;;0.60;0.60;;;;;9.34;87.15;99742.00;5058544;28;45623;-60
2022/12/30 10:45:07;;;;;;;;;2.00;0.00;;;;;9.39;88.08;99733.09;5075897;28;46505;-54
2022/12/30 10:48:15;;;;;;;;;0.60;0.60;;;;;9.47;87.90;99745.66;5076426;28;45350;-54
2022/12/30 10:50:43;;;;;;;;;2.00;1.00;;;;;9.55;87.59;99741.78;5092312;27;45390;-58
2022/12/30 10:53:13;;;;;;;;;0.20;0.20;;;;;9.44;87.17;99707.78;5073885;28;45566;-59
2022/12/30 10:56:05;;;;;;;;;1.00;1.00;;;;;9.63;88.04;99711.31;5048664;28;46425;-59
2022/12/30 10:58:46;;;;;;;;;1.40;1.00;;;;;9.65;87.67;99705.63;5071485;28;45409;-52
2022/12/30 11:01:23;;;;;;;;;1.20;0.80;;;;;9.67;87.48;99708.97;5076441;28;45369;-53
2022/12/30 11:03:50;;;;;;;;;0.60;0.60;;;;;9.72;87.49;99711.84;5040625;28;45714;-58
2022/12/30 11:06:27;;;;;;;;;0.00;0.00;;;;;9.71;87.43;99666.34;5052048;27;45887;-59
2022/12/30 11:08:54;;;;;;;;;0.40;0.00;;;;;9.87;88.33;99675.81;5067851;28;45807;-59
2022/12/30 11:14:41;;;;;;;;;1.60;1.00;;;;;9.33;87.40;99599.84;5069767;28;45493;-58
2022/12/30 11:17:08;;;;;;;;;2.00;2.00;;;;;9.95;87.77;99697.41;5055301;28;45522;-55
2022/12/30 11:19:33;;;;;;;;;2.00;2.00;;;;;10.04;87.25;99670.50;5071770;28;45429;-57
2022/12/30 11:22:02;;;;;;;;;1.50;1.50;;;;;9.54;87.40;99594.94;5051873;28;45513;-58
2022/12/30 11:24:28;;;;;;;;;1.00;1.00;;;;;9.97;87.30;99667.03;5049831;27;45671;-56
2022/12/30 11:26:54;;;;;;;;;0.25;0.00;;;;;10.16;87.41;99682.28;5036245;28;46600;-60
2022/12/30 11:29:20;;;;;;;;;0.40;0.00;;;;;10.10;87.04;99668.72;5052193;28;45560;-52
2022/12/30 11:31:48;;;;;;;;;2.00;1.00;;;;;10.06;87.52;99642.81;5054092;28;45805;-56
2022/12/30 11:34:16;;;;;;;;;0.00;0.00;;;;;10.25;87.38;99666.34;5070714;28;45568;-60
2022/12/30 11:36:42;;;;;;;;;0.40;0.40;;;;;10.28;87.78;99659.56;5053809;28;46700;-62
2022/12/30 11:39:07;;;;;;;;;1.00;1.00;;;;;10.37;88.33;99665.53;5071385;28;45631;-60
2022/12/30 11:41:33;;;;;;;;;0.00;0.00;;;;;10.38;88.84;99679.00;5073142;28;46083;-58
2022/12/30 11:43:58;;;;;;;;;1.00;1.00;;;;;10.40;88.52;99676.84;5054639;28;45797;-56
2022/12/30 11:46:30;;;;;;;;;1.00;1.00;;;;;10.41;87.67;99662.06;5072470;28;45438;-56
2022/12/30 11:48:58;;;;;;;;;1.60;0.00;;;;;10.48;88.34;99672.13;5071998;28;45738;-54
2022/12/30 11:51:26;;;;;;;;;0.40;0.00;;;;;10.50;87.87;99672.72;5088357;27;45512;-55
2022/12/30 11:54:27;;;;;;;;;1.20;1.20;;;;;10.52;88.42;99652.19;5071793;28;45591;-57
2022/12/30 11:57:03;;;;;;;;;0.60;0.60;;;;;10.53;88.62;99642.06;5053904;28;46560;-58
2022/12/30 11:59:37;;;;;;;;;1.40;1.20;;;;;10.40;88.50;99638.47;5071771;28;45605;-51
2022/12/30 12:02:15;;;;;;;;;0.40;0.00;;;;;10.56;88.31;99678.09;5071023;27;45495;-55
2022/12/30 12:04:41;;;;;;;;;1.20;1.00;;;;;10.61;88.32;99647.19;5055814;28;45383;-54
2022/12/30 12:07:15;;;;;;;;;0.00;0.00;;;;;10.64;88.96;99649.47;5072504;28;45703;-55
2022/12/30 12:10:00;;;;;;;;;0.00;0.00;;;;;10.49;88.75;99619.75;5072581;28;45477;-52
2022/12/30 12:12:27;;;;;;;;;0.00;0.00;;;;;10.71;88.22;99630.97;5054062;28;45480;-54
2022/12/30 12:15:25;;;;;;;;;0.00;0.00;;;;;10.79;88.63;99659.13;5053376;28;45461;-51
2022/12/30 12:17:52;;;;;;;;;0.00;0.00;;;;;10.64;88.83;99622.03;5067887;28;46259;-59
2022/12/30 12:20:34;;;;;;;;;0.00;0.00;;;;;10.86;88.99;99654.34;5072591;28;45547;-54
2022/12/30 12:23:31;;;;;;;;;1.00;0.00;;;;;10.55;88.89;99587.78;5060961;27;45630;-57
2022/12/30 12:26:07;;;;;;;;;0.00;0.00;;;;;10.96;88.48;99650.97;5056579;28;45860;-52
2022/12/30 12:28:33;;;;;;;;;0.00;0.00;;;;;10.94;88.76;99637.50;5054306;28;46550;-48
2022/12/30 12:31:01;;;;;;;;;2.00;1.00;;;;;11.03;89.24;99648.09;5054041;28;45397;-51
2022/12/30 12:33:38;;;;;;;;;0.00;0.00;;;;;11.04;88.60;99636.88;5072278;28;45370;-49
2022/12/30 12:36:17;;;;;;;;;2.00;1.00;;;;;11.07;89.38;99643.78;5055057;28;45788;-50
2022/12/30 12:38:54;;;;;;;;;2.00;0.00;;;;;11.11;89.84;99625.78;5070867;28;45528;-55
2022/12/30 12:41:29;;;;;;;;;0.00;0.00;;;;;11.14;90.04;99647.25;5072223;28;45486;-52
2022/12/30 12:43:57;;;;;;;;;1.40;0.40;;;;;11.19;90.21;99636.38;5071865;28;45552;-52
2022/12/30 12:46:37;;;;;;;;;0.00;0.00;;;;;11.20;90.21;99638.03;5071889;28;45401;-51
2022/12/30 12:49:25;;;;;;;;;2.00;0.00;;;;;11.24;90.57;99635.63;5071720;28;46059;-53